Airfield :
LOGIN :

Register | Disclaimer

   EN    FR    IT 

 










Legend :    VFR   Marginal VFR   IFR   Intensive IFR   Very Intensive IFR
Visi :
Ceiling :
>= 8 km
>= 3000ft
5 to 8 km
1000 to 3000 ft
1500m to 5 km
500 to 1000 ft
800 to 1500m
200 to 500 ft
< 800m
< 200 ft
Symbols :   Thunderstorms  Fog  Heavy snow  Heavy precipitations  Wind > 20 kt
SIGMETs :     Misc.  Thunderstorms  Icing  Turbulence  Mountain Waves  Volcanic Ashes







- Airport Elevation : 896 ft
- IATA code : INZ


DAUI - in Salah

CURRENT METAR :
  • 222000Z 06012KT 9000 NSC 39/02 Q1010

EXPIRED METARs :
  • 221900Z 06014KT 8000 NSC 41/03 Q1009
  • 221800Z 07016KT 8000 NSC 43/03 Q1009

TAF TAF DAUI
Valid from the 22 at 18:00 until the 23 at 18:00 UTC


221700Z 2218/2318 06015KT 8000 NSC
PROB30 2218/2224 5000 DRSA
No reported NOTAMs for that airfield.
2 SIGMETs reported for the Alger FIR (DAAA) :
 
Embedded thunderstorms
DAAA SIGMET 6 VALID 221900/222200 DAMM
DAAA ALGER FIR EMBD TS OBS WI N2528 E00123 - N2429 E00034 - N2244 E00549 - N2536 E00615 - N2528 E00123 TOP FL380 MOV E NC=
Embedded thunderstorms
DAAA SIGMET 5 VALID 221830/222100 DAMM
DAAA ALGER FIR EMBD TS FCST W OF LINE N3539 E0033 - N3220 E00220 - N3130 E00039 TOP FL340 MOV E NC=



MET'MAP, your aeronautical weather chart ! - Copyright ORBIFLY December 2007 - Disclaimer

ORBIFLY MET'MAP TEAM :

Programming & Development : Alexandra Zaïnal
Concept & Development : Baudouin d'Aumeries
Co-Development & Prog : Marc-Olivier Méhu
Technical & hardware support : Manuel Goepfert

Contact : metmap@orbifly.com




SOURCES & CREDITS :

   NOAA